Time;durP1;ratioP1;P1;durP2;ratioP2;P2;SDS_P1;SDS_P2;PMS_P1;PMS_P2;Temp;Humidity;BMP_temperature;BMP_pressure;BME280_temperature;BME280_humidity;BME280_pressure;Samples;Min_cycle;Max_cycle;Signal;HPM_P1;HPM_P2
2022/01/22 00:00:37;;;;;;;;;;;3.40;95.40;;;;;;5087457;28;20617;-78
2022/01/22 00:03:04;;;;;;;;;;;3.30;95.40;;;;;;5087661;28;19932;-78
2022/01/22 00:05:30;;;;;;;;;;;3.40;95.40;;;;;;5087793;28;19932;-78
2022/01/22 00:07:57;;;;;;;;;;;3.40;95.40;;;;;;5092973;28;19934;-78
2022/01/22 00:10:24;;;;;;;;;;;3.30;95.40;;;;;;5088036;28;19936;-79
2022/01/22 00:14:23;;;;;;;;;;;3.30;95.50;;;;;;5099777;28;19927;-78
2022/01/22 00:15:55;;;;;;;;;;;3.30;95.50;;;;;;5084127;28;19927;-79
2022/01/22 00:18:21;;;;;;;;;;;3.30;95.50;;;;;;5093349;28;19923;-79
2022/01/22 00:20:48;;;;;;;;;;;3.30;95.50;;;;;;5087739;28;19943;-79
2022/01/22 00:23:17;;;;;;;;;;;3.30;95.50;;;;;;5085614;28;19936;-78
2022/01/22 00:25:43;;;;;;;;;;;3.30;95.50;;;;;;5080768;28;19989;-79
2022/01/22 00:28:10;;;;;;;;;;;3.30;95.50;;;;;;5086383;28;19928;-78
2022/01/22 00:30:36;;;;;;;;;;;3.30;95.60;;;;;;5086061;28;19950;-78
2022/01/22 00:33:04;;;;;;;;;;;3.30;95.60;;;;;;5085414;28;19928;-78
2022/01/22 00:35:31;;;;;;;;;;;3.30;95.60;;;;;;5088645;28;19939;-79
2022/01/22 00:37:59;;;;;;;;;;;3.30;95.60;;;;;;5090952;28;19958;-77
2022/01/22 00:40:26;;;;;;;;;;;3.30;95.60;;;;;;5087265;28;19932;-77
2022/01/22 00:42:53;;;;;;;;;;;3.30;95.60;;;;;;5090823;28;19928;-78
2022/01/22 00:45:20;;;;;;;;;;;3.30;95.60;;;;;;5087300;28;20507;-79
2022/01/22 00:47:46;;;;;;;;;;;3.20;95.60;;;;;;5086916;28;19924;-78
2022/01/22 00:50:15;;;;;;;;;;;3.30;95.60;;;;;;5088257;28;19939;-78
2022/01/22 00:52:43;;;;;;;;;;;3.20;95.60;;;;;;5088304;28;19958;-79
2022/01/22 00:55:11;;;;;;;;;;;3.20;95.60;;;;;;5089519;28;19939;-77
2022/01/22 00:57:37;;;;;;;;;;;3.30;95.70;;;;;;5084100;28;19936;-78
2022/01/22 01:00:06;;;;;;;;;;;3.30;95.70;;;;;;5086458;28;19928;-79
2022/01/22 01:02:33;;;;;;;;;;;3.20;95.70;;;;;;5086689;28;20415;-78
2022/01/22 01:05:00;;;;;;;;;;;3.20;95.70;;;;;;5091172;28;20499;-78
2022/01/22 01:07:28;;;;;;;;;;;3.20;95.70;;;;;;5089066;28;19935;-79
2022/01/22 01:09:54;;;;;;;;;;;3.20;95.70;;;;;;5088689;28;20325;-78
2022/01/22 01:12:21;;;;;;;;;;;3.20;95.70;;;;;;5093616;28;20626;-78
2022/01/22 01:14:54;;;;;;;;;;;3.20;95.70;;;;;;5092713;28;19959;-78
2022/01/22 01:17:46;;;;;;;;;;;3.20;95.70;;;;;;5087718;28;20664;-79
2022/01/22 01:33:56;;;;;;;;;;;3.10;95.70;;;;;;5088318;28;19935;-79
2022/01/22 01:36:23;;;;;;;;;;;3.20;95.80;;;;;;5086596;28;19932;-78
2022/01/22 01:38:55;;;;;;;;;;;3.10;95.70;;;;;;5084253;28;19932;-79
2022/01/22 01:41:29;;;;;;;;;;;3.20;95.80;;;;;;5086046;28;19932;-79
2022/01/22 01:43:56;;;;;;;;;;;3.10;95.80;;;;;;5087775;28;20486;-79
2022/01/22 01:46:24;;;;;;;;;;;3.10;95.80;;;;;;5084819;28;19928;-79
2022/01/22 01:48:51;;;;;;;;;;;3.10;95.80;;;;;;5087073;28;20039;-78
2022/01/22 01:51:17;;;;;;;;;;;3.10;95.80;;;;;;5084055;28;19935;-78
2022/01/22 01:53:53;;;;;;;;;;;3.10;95.90;;;;;;5088865;28;20361;-78
2022/01/22 01:59:07;;;;;;;;;;;3.10;95.90;;;;;;5084775;28;19936;-78
2022/01/22 02:01:33;;;;;;;;;;;3.10;95.90;;;;;;5086717;28;19928;-78
2022/01/22 02:04:00;;;;;;;;;;;3.10;95.90;;;;;;5087556;28;19939;-79
2022/01/22 02:06:27;;;;;;;;;;;3.10;95.90;;;;;;5088880;28;19932;-78
2022/01/22 02:08:53;;;;;;;;;;;3.10;95.90;;;;;;5089140;28;19940;-78
2022/01/22 02:11:24;;;;;;;;;;;3.10;96.00;;;;;;5086910;28;19979;-78
2022/01/22 02:14:04;;;;;;;;;;;3.10;96.00;;;;;;5084989;28;20373;-78
2022/01/22 02:24:46;;;;;;;;;;;3.10;96.00;;;;;;5084433;28;20006;-78
2022/01/22 02:27:14;;;;;;;;;;;3.10;96.00;;;;;;5087219;28;19940;-78
2022/01/22 02:29:40;;;;;;;;;;;3.10;96.00;;;;;;5084761;28;19934;-78
2022/01/22 02:32:34;;;;;;;;;;;3.00;96.00;;;;;;5086393;28;19928;-78
2022/01/22 02:35:07;;;;;;;;;;;3.00;96.00;;;;;;5093045;28;19932;-78
2022/01/22 02:37:39;;;;;;;;;;;3.00;96.10;;;;;;5088113;28;19928;-78
2022/01/22 02:40:10;;;;;;;;;;;3.00;96.10;;;;;;5086506;28;19927;-78
2022/01/22 02:42:37;;;;;;;;;;;3.00;96.10;;;;;;5090165;28;19989;-79
2022/01/22 02:45:08;;;;;;;;;;;3.10;96.20;;;;;;5086834;28;19928;-76
2022/01/22 02:47:34;;;;;;;;;;;3.00;96.10;;;;;;5083272;28;19935;-77
2022/01/22 02:50:01;;;;;;;;;;;3.10;96.50;;;;;;5089611;28;19928;-78
2022/01/22 02:52:27;;;;;;;;;;;3.00;96.20;;;;;;5084776;28;19932;-78
2022/01/22 02:54:56;;;;;;;;;;;3.00;96.20;;;;;;5084966;28;19932;-79
2022/01/22 02:57:24;;;;;;;;;;;3.00;96.20;;;;;;5075112;28;20024;-78
2022/01/22 02:59:50;;;;;;;;;;;3.00;96.20;;;;;;5089848;28;19932;-77
2022/01/22 03:02:17;;;;;;;;;;;3.00;96.20;;;;;;5083279;28;19928;-78
2022/01/22 03:04:44;;;;;;;;;;;3.00;96.20;;;;;;5091006;28;19931;-78
2022/01/22 03:07:10;;;;;;;;;;;3.00;96.20;;;;;;5086590;28;19928;-76
2022/01/22 03:09:41;;;;;;;;;;;3.00;96.20;;;;;;5086320;28;19927;-78
2022/01/22 03:12:31;;;;;;;;;;;3.00;96.30;;;;;;5086689;28;19939;-79
2022/01/22 03:15:30;;;;;;;;;;;3.00;96.30;;;;;;5089094;28;19981;-78
2022/01/22 03:18:01;;;;;;;;;;;3.00;96.30;;;;;;5081102;28;19928;-78
2022/01/22 03:20:43;;;;;;;;;;;3.00;96.30;;;;;;5088410;28;19927;-78
2022/01/22 03:27:13;;;;;;;;;;;3.00;96.30;;;;;;5084529;28;20399;-79
2022/01/22 03:28:54;;;;;;;;;;;3.00;96.40;;;;;;5090492;28;20001;-77
2022/01/22 03:31:20;;;;;;;;;;;3.00;96.40;;;;;;5081721;28;19934;-77
2022/01/22 03:33:47;;;;;;;;;;;3.00;96.40;;;;;;5084941;28;20455;-79
2022/01/22 03:36:14;;;;;;;;;;;3.00;96.40;;;;;;5088711;28;19932;-78
2022/01/22 03:38:41;;;;;;;;;;;2.90;96.40;;;;;;5083313;28;19967;-79
2022/01/22 03:41:07;;;;;;;;;;;3.00;96.40;;;;;;5085311;28;19935;-78
2022/01/22 03:43:34;;;;;;;;;;;2.90;96.40;;;;;;5084169;28;19931;-78
2022/01/22 03:46:02;;;;;;;;;;;3.00;96.40;;;;;;5083250;28;19940;-79
2022/01/22 03:48:28;;;;;;;;;;;3.00;96.40;;;;;;5087345;28;19935;-77
2022/01/22 03:50:55;;;;;;;;;;;3.00;96.40;;;;;;5085927;28;19928;-78
2022/01/22 03:53:22;;;;;;;;;;;3.00;96.40;;;;;;5083551;28;20333;-79
2022/01/22 03:55:57;;;;;;;;;;;3.00;96.40;;;;;;5083651;28;20028;-78
2022/01/22 03:58:24;;;;;;;;;;;3.00;96.40;;;;;;5085592;28;19928;-78
2022/01/22 04:01:00;;;;;;;;;;;3.00;96.40;;;;;;5083358;28;19940;-78
2022/01/22 04:03:31;;;;;;;;;;;3.00;96.40;;;;;;5080661;28;19928;-78
2022/01/22 04:08:44;;;;;;;;;;;3.00;96.40;;;;;;5081986;28;19946;-78
2022/01/22 04:11:14;;;;;;;;;;;3.00;96.40;;;;;;5085690;28;19928;-78
2022/01/22 04:13:42;;;;;;;;;;;3.00;96.40;;;;;;5093222;28;19971;-79
2022/01/22 04:16:12;;;;;;;;;;;3.00;96.40;;;;;;5090626;28;19928;-78
2022/01/22 04:26:55;;;;;;;;;;;3.00;96.50;;;;;;5085766;28;19985;-78
2022/01/22 04:29:22;;;;;;;;;;;3.00;96.50;;;;;;5094622;28;19928;-79
2022/01/22 04:31:49;;;;;;;;;;;3.00;96.50;;;;;;5083224;28;20593;-79
2022/01/22 04:34:17;;;;;;;;;;;3.00;96.50;;;;;;5090038;28;19928;-79
2022/01/22 04:36:43;;;;;;;;;;;3.00;96.50;;;;;;5087963;28;20001;-80
2022/01/22 04:39:10;;;;;;;;;;;3.00;96.50;;;;;;5084643;28;19928;-78
2022/01/22 04:41:37;;;;;;;;;;;3.00;96.50;;;;;;5082723;28;19927;-79
2022/01/22 04:44:05;;;;;;;;;;;3.00;96.50;;;;;;5090516;28;20025;-78
2022/01/22 04:46:49;;;;;;;;;;;3.00;96.60;;;;;;5084337;28;19929;-78
2022/01/22 04:52:33;;;;;;;;;;;3.00;96.60;;;;;;5089797;28;19994;-77
2022/01/22 04:55:00;;;;;;;;;;;3.00;96.60;;;;;;5086072;28;20042;-78
2022/01/22 04:57:27;;;;;;;;;;;3.00;96.60;;;;;;5095219;28;19935;-78
2022/01/22 04:59:54;;;;;;;;;;;3.00;96.60;;;;;;5088373;28;20656;-78
2022/01/22 05:02:20;;;;;;;;;;;3.00;96.60;;;;;;5086017;28;20423;-79
2022/01/22 05:04:48;;;;;;;;;;;3.00;96.60;;;;;;5088755;28;20566;-78
2022/01/22 05:07:15;;;;;;;;;;;3.00;96.50;;;;;;5087972;28;19950;-79
2022/01/22 05:09:41;;;;;;;;;;;3.00;96.50;;;;;;5085513;28;19928;-79
2022/01/22 05:12:08;;;;;;;;;;;3.00;96.50;;;;;;5087046;28;19927;-79
2022/01/22 05:14:35;;;;;;;;;;;3.00;96.50;;;;;;5098676;28;19932;-79
2022/01/22 05:17:06;;;;;;;;;;;3.00;96.50;;;;;;5085745;28;20561;-79
2022/01/22 05:19:38;;;;;;;;;;;3.00;96.50;;;;;;5092703;28;19928;-78
2022/01/22 05:22:15;;;;;;;;;;;3.00;96.50;;;;;;5087137;28;20513;-78
2022/01/22 05:24:47;;;;;;;;;;;3.00;96.50;;;;;;5086576;28;19928;-78
2022/01/22 05:27:29;;;;;;;;;;;3.00;96.50;;;;;;5087873;28;19932;-78
2022/01/22 05:30:09;;;;;;;;;;;3.00;96.50;;;;;;5088864;28;19958;-78
2022/01/22 05:32:53;;;;;;;;;;;3.00;96.50;;;;;;5086883;28;19939;-79
2022/01/22 05:38:07;;;;;;;;;;;3.00;96.50;;;;;;5086637;28;19935;-78
2022/01/22 05:40:33;;;;;;;;;;;3.00;96.50;;;;;;5087011;28;20043;-78
2022/01/22 05:43:00;;;;;;;;;;;3.00;96.50;;;;;;5087539;28;19939;-78
2022/01/22 05:45:26;;;;;;;;;;;3.00;96.50;;;;;;5090086;28;19941;-78
2022/01/22 05:47:53;;;;;;;;;;;3.00;96.50;;;;;;5090082;28;19928;-78
2022/01/22 05:50:29;;;;;;;;;;;3.00;96.50;;;;;;5094838;28;19932;-78
2022/01/22 05:53:00;;;;;;;;;;;3.00;96.50;;;;;;5088194;28;19928;-78
2022/01/22 05:59:35;;;;;;;;;;;3.00;96.50;;;;;;5086916;28;19928;-79
2022/01/22 06:01:14;;;;;;;;;;;3.00;96.40;;;;;;5084192;28;19946;-78
2022/01/22 06:03:40;;;;;;;;;;;3.10;96.50;;;;;;5081754;28;19958;-78
2022/01/22 06:06:07;;;;;;;;;;;3.00;96.40;;;;;;5086882;28;20008;-78
2022/01/22 06:08:39;;;;;;;;;;;3.00;96.40;;;;;;5087023;28;19928;-78
2022/01/22 06:11:09;;;;;;;;;;;3.10;96.40;;;;;;5080716;28;19924;-78
2022/01/22 06:13:44;;;;;;;;;;;3.10;96.40;;;;;;5091236;28;19967;-78
2022/01/22 06:16:10;;;;;;;;;;;3.10;96.40;;;;;;5085588;28;19929;-79
2022/01/22 06:18:38;;;;;;;;;;;3.00;96.40;;;;;;5086029;28;19928;-79
2022/01/22 06:21:04;;;;;;;;;;;3.00;96.40;;;;;;5087780;28;19927;-79
2022/01/22 06:23:31;;;;;;;;;;;3.10;96.40;;;;;;5082830;28;19928;-78
2022/01/22 06:26:00;;;;;;;;;;;3.10;96.40;;;;;;5081308;28;19973;-79
2022/01/22 06:28:28;;;;;;;;;;;3.10;96.40;;;;;;5086949;28;20018;-78
2022/01/22 06:30:54;;;;;;;;;;;3.00;96.40;;;;;;5087662;28;19928;-78
2022/01/22 06:33:21;;;;;;;;;;;3.00;96.40;;;;;;5085885;28;19928;-78
2022/01/22 06:35:47;;;;;;;;;;;3.10;96.40;;;;;;5088539;28;19928;-79
2022/01/22 06:38:14;;;;;;;;;;;3.10;96.40;;;;;;5086464;28;19954;-79
2022/01/22 06:43:25;;;;;;;;;;;3.00;96.40;;;;;;5095728;28;19939;-79
2022/01/22 06:45:53;;;;;;;;;;;3.10;96.40;;;;;;5085731;28;19938;-78
2022/01/22 06:48:20;;;;;;;;;;;3.10;96.40;;;;;;5088026;28;19970;-79
2022/01/22 06:50:46;;;;;;;;;;;3.10;96.40;;;;;;5093634;28;20247;-78
2022/01/22 06:53:13;;;;;;;;;;;3.10;96.40;;;;;;5085524;28;19962;-79
2022/01/22 06:55:43;;;;;;;;;;;3.10;96.40;;;;;;5084857;28;19943;-79
2022/01/22 06:58:09;;;;;;;;;;;3.10;96.50;;;;;;5083540;28;19936;-77
2022/01/22 07:00:36;;;;;;;;;;;3.10;96.50;;;;;;5089065;28;19932;-79
2022/01/22 07:03:04;;;;;;;;;;;3.10;96.50;;;;;;5088486;28;19928;-78
2022/01/22 07:05:32;;;;;;;;;;;3.10;96.40;;;;;;5086798;28;19936;-78
2022/01/22 07:07:59;;;;;;;;;;;3.10;96.40;;;;;;5083590;28;19931;-77
2022/01/22 07:10:26;;;;;;;;;;;3.10;96.40;;;;;;5084447;28;20012;-78
2022/01/22 07:12:52;;;;;;;;;;;3.10;96.30;;;;;;5083307;28;19928;-78
2022/01/22 07:15:19;;;;;;;;;;;3.10;96.30;;;;;;5085666;28;19985;-77
2022/01/22 07:17:46;;;;;;;;;;;3.10;96.30;;;;;;5084420;28;20104;-77
2022/01/22 07:20:15;;;;;;;;;;;3.10;96.40;;;;;;5090798;28;21142;-77
2022/01/22 07:22:50;;;;;;;;;;;3.10;96.40;;;;;;5086126;28;19935;-78
2022/01/22 07:25:16;;;;;;;;;;;3.10;96.40;;;;;;5086439;28;19928;-77
2022/01/22 07:27:43;;;;;;;;;;;3.10;96.40;;;;;;5081624;28;20081;-77
2022/01/22 07:30:10;;;;;;;;;;;3.10;96.40;;;;;;5096453;28;19939;-77
2022/01/22 07:32:41;;;;;;;;;;;3.10;96.40;;;;;;5087303;28;19928;-77
2022/01/22 07:35:08;;;;;;;;;;;3.10;96.40;;;;;;5090840;28;19928;-77
2022/01/22 07:37:36;;;;;;;;;;;3.10;96.40;;;;;;5087914;28;19939;-77
2022/01/22 07:40:03;;;;;;;;;;;3.10;96.40;;;;;;5087742;28;19928;-78
2022/01/22 07:42:30;;;;;;;;;;;3.10;96.40;;;;;;5092597;28;19970;-77
2022/01/22 07:44:56;;;;;;;;;;;3.20;96.40;;;;;;5102330;28;20297;-76
2022/01/22 07:47:23;;;;;;;;;;;3.20;96.40;;;;;;5094684;28;19950;-76
2022/01/22 07:49:49;;;;;;;;;;;3.20;96.40;;;;;;5099504;28;19931;-77
2022/01/22 07:52:16;;;;;;;;;;;3.10;96.40;;;;;;5093315;28;19928;-77
2022/01/22 07:54:44;;;;;;;;;;;3.20;96.40;;;;;;5091250;28;19936;-77
2022/01/22 07:57:11;;;;;;;;;;;3.20;96.50;;;;;;5084140;28;19955;-77
2022/01/22 07:59:37;;;;;;;;;;;3.10;96.40;;;;;;5084814;28;20388;-77
2022/01/22 08:02:05;;;;;;;;;;;3.20;96.50;;;;;;5083846;28;20133;-77
2022/01/22 08:04:32;;;;;;;;;;;3.20;96.50;;;;;;5085263;28;20383;-77
2022/01/22 08:06:59;;;;;;;;;;;3.20;96.50;;;;;;5082961;28;20361;-77
2022/01/22 08:09:26;;;;;;;;;;;3.20;96.50;;;;;;5084536;28;20900;-77
2022/01/22 08:11:54;;;;;;;;;;;3.20;96.50;;;;;;5086392;28;19927;-77
2022/01/22 08:14:20;;;;;;;;;;;3.20;96.50;;;;;;5085658;28;19928;-78
2022/01/22 08:16:49;;;;;;;;;;;3.20;96.50;;;;;;5083364;28;20247;-77
2022/01/22 08:19:16;;;;;;;;;;;3.20;96.50;;;;;;5086237;28;19928;-77
2022/01/22 08:21:43;;;;;;;;;;;3.20;96.40;;;;;;5088904;28;19928;-77
2022/01/22 08:24:10;;;;;;;;;;;3.20;96.40;;;;;;5082117;28;20542;-77
2022/01/22 08:26:42;;;;;;;;;;;3.20;96.40;;;;;;5085260;28;20558;-77
2022/01/22 08:29:10;;;;;;;;;;;3.20;96.40;;;;;;5086677;28;19928;-77
2022/01/22 08:31:51;;;;;;;;;;;3.20;96.40;;;;;;5084418;28;19928;-78
2022/01/22 08:37:02;;;;;;;;;;;3.20;96.50;;;;;;5091551;28;19938;-77
2022/01/22 08:39:29;;;;;;;;;;;3.20;96.50;;;;;;5086833;28;19939;-77
2022/01/22 08:41:55;;;;;;;;;;;3.20;96.40;;;;;;5078402;28;19939;-78
2022/01/22 08:44:23;;;;;;;;;;;3.30;96.50;;;;;;5076994;28;19932;-77
2022/01/22 08:46:50;;;;;;;;;;;3.30;96.50;;;;;;5076792;28;19932;-78
2022/01/22 08:49:16;;;;;;;;;;;3.30;96.40;;;;;;5073945;28;19932;-78
2022/01/22 08:51:43;;;;;;;;;;;3.30;96.40;;;;;;5082291;28;19963;-77
2022/01/22 08:54:10;;;;;;;;;;;3.30;96.40;;;;;;5080048;28;19939;-76
2022/01/22 08:56:39;;;;;;;;;;;3.30;96.40;;;;;;5088076;28;20019;-77
2022/01/22 08:59:06;;;;;;;;;;;3.40;96.70;;;;;;5079030;28;19928;-78
2022/01/22 09:01:34;;;;;;;;;;;3.40;96.60;;;;;;5082739;28;19932;-78
2022/01/22 09:04:01;;;;;;;;;;;3.40;96.50;;;;;;5088880;28;20376;-78
2022/01/22 09:06:28;;;;;;;;;;;3.40;96.50;;;;;;5090967;28;19993;-77
2022/01/22 09:09:04;;;;;;;;;;;3.40;96.50;;;;;;5087184;28;19929;-77
2022/01/22 09:11:30;;;;;;;;;;;3.40;96.50;;;;;;5080589;28;19928;-77
2022/01/22 09:13:57;;;;;;;;;;;3.40;96.50;;;;;;5083222;28;19981;-78
2022/01/22 09:16:23;;;;;;;;;;;3.40;96.50;;;;;;5083441;28;20340;-77
2022/01/22 09:18:53;;;;;;;;;;;3.40;96.50;;;;;;5080965;28;20141;-77
2022/01/22 09:21:20;;;;;;;;;;;3.40;96.50;;;;;;5086519;28;19963;-77
2022/01/22 09:23:46;;;;;;;;;;;3.40;96.50;;;;;;5079992;28;19940;-78
2022/01/22 09:26:13;;;;;;;;;;;3.40;96.50;;;;;;5081727;28;19932;-77
2022/01/22 09:28:40;;;;;;;;;;;3.40;96.50;;;;;;5078915;28;19928;-77
2022/01/22 09:31:06;;;;;;;;;;;3.40;96.50;;;;;;5086780;28;19935;-77
2022/01/22 09:33:33;;;;;;;;;;;3.40;96.50;;;;;;5080466;28;19928;-78
2022/01/22 09:36:01;;;;;;;;;;;3.40;96.50;;;;;;5085512;28;20422;-78
2022/01/22 09:38:27;;;;;;;;;;;3.40;96.50;;;;;;5078812;28;19935;-77
2022/01/22 09:40:54;;;;;;;;;;;3.40;96.50;;;;;;5081152;28;19928;-77
2022/01/22 09:43:20;;;;;;;;;;;3.40;96.50;;;;;;5083620;28;20654;-77
2022/01/22 09:45:50;;;;;;;;;;;3.50;96.50;;;;;;5084410;28;19985;-78
2022/01/22 09:48:16;;;;;;;;;;;3.50;96.50;;;;;;5082379;28;20633;-77
2022/01/22 09:50:43;;;;;;;;;;;3.50;96.50;;;;;;5087374;28;19990;-77
2022/01/22 09:53:11;;;;;;;;;;;3.50;96.60;;;;;;5085300;28;19973;-76
2022/01/22 09:55:37;;;;;;;;;;;3.60;96.70;;;;;;5081118;28;20526;-77
2022/01/22 09:58:04;;;;;;;;;;;3.70;96.60;;;;;;5077340;28;19982;-78
2022/01/22 10:00:30;;;;;;;;;;;3.70;96.50;;;;;;5082684;28;19935;-77
2022/01/22 10:02:58;;;;;;;;;;;3.80;96.50;;;;;;5085701;28;19939;-78
2022/01/22 10:05:32;;;;;;;;;;;3.80;96.50;;;;;;5081221;28;20636;-77
2022/01/22 10:08:13;;;;;;;;;;;3.80;96.50;;;;;;5085536;28;19936;-77
2022/01/22 10:10:41;;;;;;;;;;;3.80;96.40;;;;;;5080006;28;19932;-77
2022/01/22 10:13:08;;;;;;;;;;;3.90;96.40;;;;;;5076115;28;19932;-77
2022/01/22 10:15:35;;;;;;;;;;;3.90;96.40;;;;;;5081724;28;20361;-78
2022/01/22 10:18:03;;;;;;;;;;;3.90;96.30;;;;;;5084880;28;19932;-78
2022/01/22 10:20:30;;;;;;;;;;;4.00;96.30;;;;;;5089610;28;20027;-78
2022/01/22 10:22:59;;;;;;;;;;;4.00;96.20;;;;;;5084851;28;19958;-78
2022/01/22 10:25:29;;;;;;;;;;;4.00;96.20;;;;;;5081368;28;20045;-77
2022/01/22 10:27:57;;;;;;;;;;;4.00;96.10;;;;;;5076163;28;20060;-77
2022/01/22 10:30:34;;;;;;;;;;;4.10;96.10;;;;;;5077870;28;20247;-77
2022/01/22 10:33:07;;;;;;;;;;;4.10;96.00;;;;;;5080818;28;20021;-78
2022/01/22 10:35:34;;;;;;;;;;;4.10;96.00;;;;;;5081761;28;20024;-77
2022/01/22 10:38:01;;;;;;;;;;;4.10;95.90;;;;;;5079158;28;19936;-78
2022/01/22 10:40:29;;;;;;;;;;;4.10;95.90;;;;;;5080518;28;19928;-77
2022/01/22 10:43:15;;;;;;;;;;;4.10;95.90;;;;;;5078930;28;19981;-78
2022/01/22 10:45:41;;;;;;;;;;;4.10;95.80;;;;;;5078272;28;19936;-78
2022/01/22 10:48:15;;;;;;;;;;;4.10;95.80;;;;;;5084121;28;19935;-77
2022/01/22 10:50:42;;;;;;;;;;;4.20;95.80;;;;;;5085981;28;19928;-77
2022/01/22 10:53:08;;;;;;;;;;;4.20;95.70;;;;;;5080891;28;19938;-78
2022/01/22 10:55:56;;;;;;;;;;;4.10;95.70;;;;;;5080715;28;19927;-78
2022/01/22 10:58:23;;;;;;;;;;;4.20;95.70;;;;;;5092303;28;19981;-77
2022/01/22 11:00:58;;;;;;;;;;;4.20;95.70;;;;;;5097309;28;19931;-77
2022/01/22 11:03:28;;;;;;;;;;;4.20;95.60;;;;;;5103326;28;21294;-77
2022/01/22 11:05:55;;;;;;;;;;;4.20;95.60;;;;;;5086723;28;20316;-78
2022/01/22 11:08:22;;;;;;;;;;;4.30;95.60;;;;;;5078893;28;19928;-78
2022/01/22 11:10:49;;;;;;;;;;;4.30;95.60;;;;;;5083867;28;19935;-78
2022/01/22 11:13:16;;;;;;;;;;;4.30;95.60;;;;;;5084119;28;19928;-78
2022/01/22 11:15:45;;;;;;;;;;;4.30;95.50;;;;;;5082861;28;19939;-78
2022/01/22 11:18:12;;;;;;;;;;;4.30;95.50;;;;;;5084024;28;19935;-78
2022/01/22 11:20:39;;;;;;;;;;;4.30;95.50;;;;;;5085543;28;19932;-78
2022/01/22 11:23:06;;;;;;;;;;;4.30;95.40;;;;;;5084481;28;19981;-79
2022/01/22 11:25:34;;;;;;;;;;;4.30;95.40;;;;;;5080940;28;19935;-80
2022/01/22 11:28:01;;;;;;;;;;;4.40;95.40;;;;;;5084340;28;19932;-80
2022/01/22 11:30:29;;;;;;;;;;;4.40;95.40;;;;;;5089687;28;20002;-80
2022/01/22 11:32:58;;;;;;;;;;;4.40;95.40;;;;;;5078868;28;20387;-78
2022/01/22 11:35:29;;;;;;;;;;;4.40;95.40;;;;;;5085480;28;19932;-79
2022/01/22 11:37:56;;;;;;;;;;;4.40;95.40;;;;;;5088588;28;19932;-78
2022/01/22 11:40:24;;;;;;;;;;;4.40;95.30;;;;;;5081895;28;19932;-79
2022/01/22 11:42:55;;;;;;;;;;;4.40;95.30;;;;;;5086845;28;19939;-79
2022/01/22 11:45:26;;;;;;;;;;;4.40;95.30;;;;;;5081213;28;20019;-80
2022/01/22 11:48:08;;;;;;;;;;;4.40;95.30;;;;;;5089799;28;19928;-79
2022/01/22 11:50:36;;;;;;;;;;;4.50;95.30;;;;;;5086137;28;20260;-79
2022/01/22 11:53:17;;;;;;;;;;;4.50;95.30;;;;;;5086619;28;19928;-80
2022/01/22 11:55:43;;;;;;;;;;;4.50;95.30;;;;;;5084443;28;19932;-79
2022/01/22 11:58:11;;;;;;;;;;;4.50;95.30;;;;;;5086254;28;19928;-78
2022/01/22 12:00:41;;;;;;;;;;;4.50;95.30;;;;;;5087594;28;19932;-79
2022/01/22 12:03:23;;;;;;;;;;;4.50;95.30;;;;;;5096396;28;19969;-79
2022/01/22 12:06:07;;;;;;;;;;;4.50;95.20;;;;;;5088976;28;21408;-79
2022/01/22 12:08:48;;;;;;;;;;;4.50;95.20;;;;;;5086785;28;19928;-78
2022/01/22 12:14:34;;;;;;;;;;;4.50;95.20;;;;;;5083703;28;19931;-78
2022/01/22 12:17:03;;;;;;;;;;;4.60;95.20;;;;;;5077086;28;19932;-79
2022/01/22 12:20:05;;;;;;;;;;;4.60;95.30;;;;;;5084573;28;19970;-79
2022/01/22 12:22:47;;;;;;;;;;;4.60;95.20;;;;;;5078864;28;19999;-79
2022/01/22 12:25:28;;;;;;;;;;;4.60;95.20;;;;;;5076622;28;20334;-78
2022/01/22 12:27:55;;;;;;;;;;;4.60;95.20;;;;;;5081517;28;19931;-78
2022/01/22 12:30:32;;;;;;;;;;;4.60;95.20;;;;;;5082089;28;19939;-78
2022/01/22 12:33:00;;;;;;;;;;;4.60;95.50;;;;;;5082956;28;20358;-79
2022/01/22 12:35:34;;;;;;;;;;;4.60;95.20;;;;;;5092119;28;19959;-79
2022/01/22 12:38:18;;;;;;;;;;;4.60;95.20;;;;;;5079405;28;19928;-80
2022/01/22 12:40:45;;;;;;;;;;;4.60;95.20;;;;;;5080269;28;19949;-79
2022/01/22 12:43:19;;;;;;;;;;;4.60;95.20;;;;;;5084467;28;20444;-81
2022/01/22 12:45:46;;;;;;;;;;;4.60;95.20;;;;;;5082768;28;19997;-79
2022/01/22 12:48:13;;;;;;;;;;;4.70;95.20;;;;;;5081890;28;19947;-79
2022/01/22 12:50:40;;;;;;;;;;;4.70;95.20;;;;;;5090451;28;20050;-79
2022/01/22 12:53:11;;;;;;;;;;;4.70;95.20;;;;;;5089255;28;19928;-79
2022/01/22 12:58:38;;;;;;;;;;;4.70;95.20;;;;;;5089645;28;20049;-79
2022/01/22 13:01:08;;;;;;;;;;;4.70;95.20;;;;;;5081856;28;19928;-80
2022/01/22 13:03:36;;;;;;;;;;;4.70;95.20;;;;;;5089732;28;19928;-80
2022/01/22 13:06:02;;;;;;;;;;;4.70;95.20;;;;;;5086574;28;19932;-78
2022/01/22 13:08:30;;;;;;;;;;;4.70;95.20;;;;;;5080446;28;19932;-78
2022/01/22 13:10:59;;;;;;;;;;;4.80;95.20;;;;;;5083483;28;19928;-79
2022/01/22 13:13:26;;;;;;;;;;;4.80;95.20;;;;;;5089069;28;19963;-78
2022/01/22 13:16:03;;;;;;;;;;;4.80;95.20;;;;;;5084909;28;20411;-79
2022/01/22 13:18:39;;;;;;;;;;;4.80;95.20;;;;;;5083173;28;19932;-79
2022/01/22 13:21:06;;;;;;;;;;;4.80;95.20;;;;;;5082204;28;20376;-79
2022/01/22 13:23:33;;;;;;;;;;;4.80;95.20;;;;;;5084250;28;19979;-79
2022/01/22 13:26:01;;;;;;;;;;;4.80;95.20;;;;;;5077830;28;19928;-79
2022/01/22 13:28:28;;;;;;;;;;;4.80;95.20;;;;;;5088574;28;19928;-78
2022/01/22 13:31:00;;;;;;;;;;;4.90;95.20;;;;;;5081430;28;19927;-79
2022/01/22 13:33:35;;;;;;;;;;;4.90;95.20;;;;;;5083010;28;19931;-78
2022/01/22 13:36:13;;;;;;;;;;;4.90;95.20;;;;;;5091126;28;19927;-78
2022/01/22 13:38:58;;;;;;;;;;;4.90;95.20;;;;;;5091437;28;19963;-77
2022/01/22 13:49:36;;;;;;;;;;;4.90;95.10;;;;;;5086410;28;19955;-77
2022/01/22 13:52:04;;;;;;;;;;;4.90;95.10;;;;;;5086616;28;19928;-76
2022/01/22 13:54:32;;;;;;;;;;;4.90;95.10;;;;;;5085623;28;19932;-77
2022/01/22 13:57:04;;;;;;;;;;;4.90;95.10;;;;;;5083966;28;20024;-77
2022/01/22 13:59:32;;;;;;;;;;;4.90;95.10;;;;;;5078556;28;20586;-78
2022/01/22 14:02:09;;;;;;;;;;;4.90;95.10;;;;;;5083572;28;19932;-78
2022/01/22 14:04:40;;;;;;;;;;;4.90;95.10;;;;;;5082792;28;19932;-77
2022/01/22 14:07:16;;;;;;;;;;;4.90;95.10;;;;;;5086338;28;19935;-77
2022/01/22 14:09:50;;;;;;;;;;;4.90;95.10;;;;;;5080425;28;19928;-77
2022/01/22 14:12:18;;;;;;;;;;;4.90;95.10;;;;;;5085758;28;19928;-78
2022/01/22 14:14:55;;;;;;;;;;;4.90;95.10;;;;;;5085392;28;19928;-79
2022/01/22 14:17:25;;;;;;;;;;;4.90;95.10;;;;;;5078853;28;20452;-78
2022/01/22 14:19:58;;;;;;;;;;;4.90;95.10;;;;;;5091774;28;19934;-78
2022/01/22 14:22:25;;;;;;;;;;;4.90;95.10;;;;;;5080500;28;19993;-77
2022/01/22 14:25:06;;;;;;;;;;;5.00;95.10;;;;;;5080833;28;19932;-78
2022/01/22 14:27:34;;;;;;;;;;;4.90;95.10;;;;;;5083338;28;19928;-78
2022/01/22 14:30:01;;;;;;;;;;;4.90;95.10;;;;;;5093931;28;19939;-78
2022/01/22 14:32:29;;;;;;;;;;;4.90;95.10;;;;;;5083926;28;20643;-78
2022/01/22 14:34:55;;;;;;;;;;;5.00;95.10;;;;;;5082421;28;19928;-78
2022/01/22 14:37:27;;;;;;;;;;;5.00;95.20;;;;;;5078655;28;19939;-78
2022/01/22 14:45:24;;;;;;;;;;;5.00;95.10;;;;;;5077635;28;19943;-78
2022/01/22 14:47:52;;;;;;;;;;;5.00;95.10;;;;;;5083048;28;20470;-77
2022/01/22 14:50:18;;;;;;;;;;;4.90;95.00;;;;;;5086702;28;19928;-78
2022/01/22 14:52:47;;;;;;;;;;;5.00;95.10;;;;;;5087962;28;19955;-78
2022/01/22 14:55:14;;;;;;;;;;;5.00;95.00;;;;;;5089053;28;19927;-76
2022/01/22 14:57:43;;;;;;;;;;;5.00;95.00;;;;;;5085363;28;20315;-77
2022/01/22 15:00:11;;;;;;;;;;;5.00;95.00;;;;;;5078784;28;19977;-77
2022/01/22 15:02:38;;;;;;;;;;;5.00;95.00;;;;;;5085461;28;20329;-77
2022/01/22 15:05:06;;;;;;;;;;;5.00;95.10;;;;;;5078829;28;19973;-77
2022/01/22 15:07:32;;;;;;;;;;;5.00;95.10;;;;;;5085928;28;19928;-77
2022/01/22 15:09:59;;;;;;;;;;;5.00;95.10;;;;;;5082057;28;20005;-77
2022/01/22 15:12:25;;;;;;;;;;;5.00;95.10;;;;;;5086126;28;19985;-76
2022/01/22 15:14:53;;;;;;;;;;;5.00;95.10;;;;;;5080694;28;19936;-77
2022/01/22 15:20:07;;;;;;;;;;;5.00;95.10;;;;;;5077333;28;19939;-77
2022/01/22 15:22:34;;;;;;;;;;;5.00;95.10;;;;;;5080538;28;19939;-77
2022/01/22 15:25:00;;;;;;;;;;;5.00;95.10;;;;;;5079485;28;19932;-76
2022/01/22 15:27:27;;;;;;;;;;;5.00;95.10;;;;;;5083627;28;19935;-79
2022/01/22 15:29:58;;;;;;;;;;;5.00;95.10;;;;;;5082677;28;19928;-78
2022/01/22 15:32:46;;;;;;;;;;;5.00;95.10;;;;;;5084551;28;19994;-77
2022/01/22 15:35:13;;;;;;;;;;;5.00;95.00;;;;;;5084225;28;20026;-78
2022/01/22 15:37:44;;;;;;;;;;;5.00;95.00;;;;;;5090986;28;19928;-76
2022/01/22 15:40:11;;;;;;;;;;;5.00;95.00;;;;;;5087965;28;19957;-77
2022/01/22 15:42:38;;;;;;;;;;;5.00;95.00;;;;;;5088377;28;19981;-77
2022/01/22 15:45:07;;;;;;;;;;;5.00;95.00;;;;;;5086248;28;19928;-77
2022/01/22 15:47:33;;;;;;;;;;;5.00;95.00;;;;;;5083565;28;19928;-77
2022/01/22 15:50:00;;;;;;;;;;;5.00;95.00;;;;;;5090144;28;19928;-78
2022/01/22 15:52:27;;;;;;;;;;;5.00;95.00;;;;;;5087008;28;19932;-78
2022/01/22 15:54:54;;;;;;;;;;;5.00;95.10;;;;;;5092896;28;19962;-77
2022/01/22 15:57:21;;;;;;;;;;;5.00;95.10;;;;;;5090455;28;19932;-78
2022/01/22 15:59:47;;;;;;;;;;;5.00;95.10;;;;;;5090502;28;20695;-78